sensor_id;sensor_type;location;lat;lon;timestamp;P1;durP1;ratioP1;P2;durP2;ratioP2
15555;SDS011;7879;48.660;9.116;2024-03-22T00:01:15;0.20;;;0.20;;
15555;SDS011;7879;48.660;9.116;2024-03-22T00:03:41;0.30;;;0.30;;
15555;SDS011;7879;48.660;9.116;2024-03-22T00:06:08;0.20;;;0.20;;
15555;SDS011;7879;48.660;9.116;2024-03-22T00:08:33;0.17;;;0.17;;
15555;SDS011;7879;48.660;9.116;2024-03-22T00:10:59;0.22;;;0.22;;
15555;SDS011;7879;48.660;9.116;2024-03-22T00:13:25;0.20;;;0.20;;
15555;SDS011;7879;48.660;9.116;2024-03-22T00:15:51;0.20;;;0.20;;
15555;SDS011;7879;48.660;9.116;2024-03-22T00:18:17;0.20;;;0.20;;
15555;SDS011;7879;48.660;9.116;2024-03-22T00:20:43;0.30;;;0.30;;
15555;SDS011;7879;48.660;9.116;2024-03-22T00:23:09;0.20;;;0.20;;
15555;SDS011;7879;48.660;9.116;2024-03-22T00:25:34;0.20;;;0.20;;
15555;SDS011;7879;48.660;9.116;2024-03-22T00:28:00;0.25;;;0.25;;
15555;SDS011;7879;48.660;9.116;2024-03-22T00:30:26;0.30;;;0.30;;
15555;SDS011;7879;48.660;9.116;2024-03-22T00:32:53;0.20;;;0.20;;
15555;SDS011;7879;48.660;9.116;2024-03-22T00:35:19;0.17;;;0.17;;
15555;SDS011;7879;48.660;9.116;2024-03-22T00:37:45;0.30;;;0.30;;
15555;SDS011;7879;48.660;9.116;2024-03-22T00:40:11;0.30;;;0.30;;
15555;SDS011;7879;48.660;9.116;2024-03-22T00:42:37;0.25;;;0.25;;
15555;SDS011;7879;48.660;9.116;2024-03-22T00:45:03;0.20;;;0.20;;
15555;SDS011;7879;48.660;9.116;2024-03-22T00:47:29;0.30;;;0.30;;
15555;SDS011;7879;48.660;9.116;2024-03-22T00:49:55;0.30;;;0.30;;
15555;SDS011;7879;48.660;9.116;2024-03-22T00:52:21;0.20;;;0.20;;
15555;SDS011;7879;48.660;9.116;2024-03-22T00:54:49;0.20;;;0.20;;
15555;SDS011;7879;48.660;9.116;2024-03-22T00:57:15;0.20;;;0.20;;
15555;SDS011;7879;48.660;9.116;2024-03-22T00:59:41;0.30;;;0.30;;
15555;SDS011;7879;48.660;9.116;2024-03-22T01:02:06;0.30;;;0.30;;
15555;SDS011;7879;48.660;9.116;2024-03-22T01:04:32;0.20;;;0.20;;
15555;SDS011;7879;48.660;9.116;2024-03-22T01:06:59;0.20;;;0.20;;
15555;SDS011;7879;48.660;9.116;2024-03-22T01:09:25;0.30;;;0.30;;
15555;SDS011;7879;48.660;9.116;2024-03-22T01:11:50;0.20;;;0.20;;
15555;SDS011;7879;48.660;9.116;2024-03-22T01:14:16;0.20;;;0.20;;
15555;SDS011;7879;48.660;9.116;2024-03-22T01:16:42;0.20;;;0.20;;
15555;SDS011;7879;48.660;9.116;2024-03-22T01:19:08;0.20;;;0.20;;
15555;SDS011;7879;48.660;9.116;2024-03-22T01:21:34;0.30;;;0.30;;
15555;SDS011;7879;48.660;9.116;2024-03-22T01:24:01;0.30;;;0.30;;
15555;SDS011;7879;48.660;9.116;2024-03-22T01:26:27;0.27;;;0.27;;
15555;SDS011;7879;48.660;9.116;2024-03-22T01:28:53;0.20;;;0.20;;
15555;SDS011;7879;48.660;9.116;2024-03-22T01:31:19;0.20;;;0.20;;
15555;SDS011;7879;48.660;9.116;2024-03-22T01:33:58;0.30;;;0.30;;
15555;SDS011;7879;48.660;9.116;2024-03-22T01:36:42;0.22;;;0.22;;
15555;SDS011;7879;48.660;9.116;2024-03-22T01:39:31;0.20;;;0.20;;
15555;SDS011;7879;48.660;9.116;2024-03-22T01:42:00;0.30;;;0.30;;
15555;SDS011;7879;48.660;9.116;2024-03-22T01:44:34;0.30;;;0.30;;
15555;SDS011;7879;48.660;9.116;2024-03-22T01:47:07;0.20;;;0.20;;
15555;SDS011;7879;48.660;9.116;2024-03-22T01:49:34;0.20;;;0.20;;
15555;SDS011;7879;48.660;9.116;2024-03-22T01:52:01;0.20;;;0.20;;
15555;SDS011;7879;48.660;9.116;2024-03-22T01:54:28;0.30;;;0.30;;
15555;SDS011;7879;48.660;9.116;2024-03-22T01:56:56;0.30;;;0.30;;
15555;SDS011;7879;48.660;9.116;2024-03-22T01:59:23;0.30;;;0.30;;
15555;SDS011;7879;48.660;9.116;2024-03-22T02:01:50;0.28;;;0.28;;
15555;SDS011;7879;48.660;9.116;2024-03-22T02:04:16;0.20;;;0.20;;
15555;SDS011;7879;48.660;9.116;2024-03-22T02:06:42;0.30;;;0.30;;
15555;SDS011;7879;48.660;9.116;2024-03-22T02:09:09;0.30;;;0.30;;
15555;SDS011;7879;48.660;9.116;2024-03-22T02:11:35;0.30;;;0.30;;
15555;SDS011;7879;48.660;9.116;2024-03-22T02:14:03;0.30;;;0.30;;
15555;SDS011;7879;48.660;9.116;2024-03-22T02:16:29;0.20;;;0.20;;
15555;SDS011;7879;48.660;9.116;2024-03-22T02:18:55;0.20;;;0.20;;
15555;SDS011;7879;48.660;9.116;2024-03-22T02:21:21;0.20;;;0.20;;
15555;SDS011;7879;48.660;9.116;2024-03-22T02:23:47;0.20;;;0.20;;
15555;SDS011;7879;48.660;9.116;2024-03-22T02:30:01;0.20;;;0.20;;
15555;SDS011;7879;48.660;9.116;2024-03-22T02:32:27;0.20;;;0.20;;
15555;SDS011;7879;48.660;9.116;2024-03-22T02:34:53;0.30;;;0.30;;
15555;SDS011;7879;48.660;9.116;2024-03-22T02:37:19;0.30;;;0.30;;
15555;SDS011;7879;48.660;9.116;2024-03-22T02:39:45;0.30;;;0.30;;
15555;SDS011;7879;48.660;9.116;2024-03-22T02:42:11;0.30;;;0.30;;
15555;SDS011;7879;48.660;9.116;2024-03-22T02:44:37;0.30;;;0.30;;
15555;SDS011;7879;48.660;9.116;2024-03-22T02:47:08;0.20;;;0.20;;
15555;SDS011;7879;48.660;9.116;2024-03-22T02:49:35;0.20;;;0.20;;
15555;SDS011;7879;48.660;9.116;2024-03-22T02:52:01;0.20;;;0.20;;
15555;SDS011;7879;48.660;9.116;2024-03-22T02:54:27;0.30;;;0.30;;
15555;SDS011;7879;48.660;9.116;2024-03-22T02:56:53;0.30;;;0.30;;
15555;SDS011;7879;48.660;9.116;2024-03-22T02:59:19;0.30;;;0.30;;
15555;SDS011;7879;48.660;9.116;2024-03-22T03:01:45;0.30;;;0.30;;
15555;SDS011;7879;48.660;9.116;2024-03-22T03:04:13;0.30;;;0.30;;
15555;SDS011;7879;48.660;9.116;2024-03-22T03:06:39;0.20;;;0.20;;
15555;SDS011;7879;48.660;9.116;2024-03-22T03:09:05;0.20;;;0.20;;
15555;SDS011;7879;48.660;9.116;2024-03-22T03:11:33;0.20;;;0.20;;
15555;SDS011;7879;48.660;9.116;2024-03-22T03:13:59;0.20;;;0.20;;
15555;SDS011;7879;48.660;9.116;2024-03-22T03:16:24;0.30;;;0.30;;
15555;SDS011;7879;48.660;9.116;2024-03-22T03:18:50;0.30;;;0.30;;
15555;SDS011;7879;48.660;9.116;2024-03-22T03:21:16;0.30;;;0.30;;
15555;SDS011;7879;48.660;9.116;2024-03-22T03:23:42;0.30;;;0.30;;
15555;SDS011;7879;48.660;9.116;2024-03-22T03:26:08;0.20;;;0.20;;
15555;SDS011;7879;48.660;9.116;2024-03-22T03:28:34;0.20;;;0.20;;
15555;SDS011;7879;48.660;9.116;2024-03-22T03:30:59;0.20;;;0.20;;
15555;SDS011;7879;48.660;9.116;2024-03-22T03:33:25;0.20;;;0.20;;
15555;SDS011;7879;48.660;9.116;2024-03-22T03:35:51;0.30;;;0.30;;
15555;SDS011;7879;48.660;9.116;2024-03-22T03:38:17;0.30;;;0.30;;
15555;SDS011;7879;48.660;9.116;2024-03-22T03:40:46;0.30;;;0.30;;
15555;SDS011;7879;48.660;9.116;2024-03-22T03:43:12;0.30;;;0.30;;
15555;SDS011;7879;48.660;9.116;2024-03-22T03:45:38;0.20;;;0.20;;
15555;SDS011;7879;48.660;9.116;2024-03-22T03:48:04;0.20;;;0.20;;
15555;SDS011;7879;48.660;9.116;2024-03-22T03:50:30;0.28;;;0.28;;
15555;SDS011;7879;48.660;9.116;2024-03-22T03:52:56;0.20;;;0.20;;
15555;SDS011;7879;48.660;9.116;2024-03-22T03:55:22;0.30;;;0.30;;
15555;SDS011;7879;48.660;9.116;2024-03-22T03:57:51;0.30;;;0.30;;
15555;SDS011;7879;48.660;9.116;2024-03-22T04:00:20;0.30;;;0.30;;
15555;SDS011;7879;48.660;9.116;2024-03-22T04:02:48;0.20;;;0.20;;
15555;SDS011;7879;48.660;9.116;2024-03-22T04:05:15;0.20;;;0.20;;
15555;SDS011;7879;48.660;9.116;2024-03-22T04:07:41;0.20;;;0.20;;
15555;SDS011;7879;48.660;9.116;2024-03-22T04:10:08;0.30;;;0.30;;
15555;SDS011;7879;48.660;9.116;2024-03-22T04:12:34;0.30;;;0.30;;
15555;SDS011;7879;48.660;9.116;2024-03-22T04:15:00;0.30;;;0.30;;
15555;SDS011;7879;48.660;9.116;2024-03-22T04:17:25;0.30;;;0.30;;
15555;SDS011;7879;48.660;9.116;2024-03-22T04:19:51;0.30;;;0.30;;
15555;SDS011;7879;48.660;9.116;2024-03-22T04:22:17;0.28;;;0.28;;
15555;SDS011;7879;48.660;9.116;2024-03-22T04:24:43;0.30;;;0.30;;
15555;SDS011;7879;48.660;9.116;2024-03-22T04:27:09;0.30;;;0.30;;
15555;SDS011;7879;48.660;9.116;2024-03-22T04:29:36;0.30;;;0.30;;
15555;SDS011;7879;48.660;9.116;2024-03-22T04:32:03;0.30;;;0.30;;
15555;SDS011;7879;48.660;9.116;2024-03-22T04:34:29;0.30;;;0.30;;
15555;SDS011;7879;48.660;9.116;2024-03-22T04:36:55;0.30;;;0.30;;
15555;SDS011;7879;48.660;9.116;2024-03-22T04:39:22;0.20;;;0.20;;
15555;SDS011;7879;48.660;9.116;2024-03-22T04:41:49;0.20;;;0.20;;
15555;SDS011;7879;48.660;9.116;2024-03-22T04:44:18;0.20;;;0.20;;
15555;SDS011;7879;48.660;9.116;2024-03-22T04:46:44;0.30;;;0.30;;
15555;SDS011;7879;48.660;9.116;2024-03-22T04:49:10;0.30;;;0.30;;
15555;SDS011;7879;48.660;9.116;2024-03-22T04:51:35;0.30;;;0.30;;
15555;SDS011;7879;48.660;9.116;2024-03-22T04:54:02;0.20;;;0.20;;
15555;SDS011;7879;48.660;9.116;2024-03-22T04:56:27;0.20;;;0.20;;
15555;SDS011;7879;48.660;9.116;2024-03-22T04:58:53;0.20;;;0.20;;
15555;SDS011;7879;48.660;9.116;2024-03-22T05:01:20;0.30;;;0.30;;
15555;SDS011;7879;48.660;9.116;2024-03-22T05:03:46;0.30;;;0.30;;
15555;SDS011;7879;48.660;9.116;2024-03-22T05:06:13;0.20;;;0.20;;
15555;SDS011;7879;48.660;9.116;2024-03-22T05:08:42;0.20;;;0.20;;
15555;SDS011;7879;48.660;9.116;2024-03-22T05:11:11;0.20;;;0.20;;
15555;SDS011;7879;48.660;9.116;2024-03-22T05:13:37;0.30;;;0.30;;
15555;SDS011;7879;48.660;9.116;2024-03-22T05:16:05;0.28;;;0.28;;
15555;SDS011;7879;48.660;9.116;2024-03-22T05:18:32;0.20;;;0.20;;
15555;SDS011;7879;48.660;9.116;2024-03-22T05:20:57;0.20;;;0.20;;
15555;SDS011;7879;48.660;9.116;2024-03-22T05:23:23;0.30;;;0.30;;
15555;SDS011;7879;48.660;9.116;2024-03-22T05:25:49;0.30;;;0.30;;
15555;SDS011;7879;48.660;9.116;2024-03-22T05:28:15;0.20;;;0.20;;
15555;SDS011;7879;48.660;9.116;2024-03-22T05:30:41;0.20;;;0.20;;
15555;SDS011;7879;48.660;9.116;2024-03-22T05:33:07;0.20;;;0.20;;
15555;SDS011;7879;48.660;9.116;2024-03-22T05:35:33;0.30;;;0.30;;
15555;SDS011;7879;48.660;9.116;2024-03-22T05:37:59;0.20;;;0.20;;
15555;SDS011;7879;48.660;9.116;2024-03-22T05:40:24;0.20;;;0.20;;
15555;SDS011;7879;48.660;9.116;2024-03-22T05:42:50;0.20;;;0.20;;
15555;SDS011;7879;48.660;9.116;2024-03-22T05:45:16;0.30;;;0.30;;
15555;SDS011;7879;48.660;9.116;2024-03-22T05:47:42;0.30;;;0.30;;
15555;SDS011;7879;48.660;9.116;2024-03-22T05:50:08;0.20;;;0.20;;
15555;SDS011;7879;48.660;9.116;2024-03-22T05:52:34;0.20;;;0.20;;
15555;SDS011;7879;48.660;9.116;2024-03-22T05:55:00;0.30;;;0.30;;
15555;SDS011;7879;48.660;9.116;2024-03-22T05:57:26;0.30;;;0.30;;
15555;SDS011;7879;48.660;9.116;2024-03-22T05:59:52;0.20;;;0.20;;
15555;SDS011;7879;48.660;9.116;2024-03-22T06:02:18;0.20;;;0.20;;
15555;SDS011;7879;48.660;9.116;2024-03-22T06:04:44;0.30;;;0.30;;
15555;SDS011;7879;48.660;9.116;2024-03-22T06:07:11;0.30;;;0.30;;
15555;SDS011;7879;48.660;9.116;2024-03-22T06:09:37;0.20;;;0.20;;
15555;SDS011;7879;48.660;9.116;2024-03-22T06:12:14;0.20;;;0.20;;
15555;SDS011;7879;48.660;9.116;2024-03-22T06:14:41;0.30;;;0.30;;
15555;SDS011;7879;48.660;9.116;2024-03-22T06:17:12;0.20;;;0.20;;
15555;SDS011;7879;48.660;9.116;2024-03-22T06:19:38;0.20;;;0.20;;
15555;SDS011;7879;48.660;9.116;2024-03-22T06:22:04;0.28;;;0.28;;
15555;SDS011;7879;48.660;9.116;2024-03-22T06:24:30;0.30;;;0.30;;
15555;SDS011;7879;48.660;9.116;2024-03-22T06:26:55;0.20;;;0.20;;
15555;SDS011;7879;48.660;9.116;2024-03-22T06:29:21;0.20;;;0.20;;
15555;SDS011;7879;48.660;9.116;2024-03-22T06:31:47;0.20;;;0.20;;
15555;SDS011;7879;48.660;9.116;2024-03-22T06:34:15;0.30;;;0.30;;
15555;SDS011;7879;48.660;9.116;2024-03-22T06:36:41;0.20;;;0.20;;
15555;SDS011;7879;48.660;9.116;2024-03-22T06:39:08;0.20;;;0.20;;
15555;SDS011;7879;48.660;9.116;2024-03-22T06:41:35;0.30;;;0.30;;
15555;SDS011;7879;48.660;9.116;2024-03-22T06:44:01;0.20;;;0.20;;
15555;SDS011;7879;48.660;9.116;2024-03-22T06:46:27;0.10;;;0.10;;
15555;SDS011;7879;48.660;9.116;2024-03-22T06:48:53;0.23;;;0.23;;
15555;SDS011;7879;48.660;9.116;2024-03-22T06:51:19;0.20;;;0.20;;
15555;SDS011;7879;48.660;9.116;2024-03-22T06:53:45;0.10;;;0.10;;
15555;SDS011;7879;48.660;9.116;2024-03-22T06:56:13;0.25;;;0.25;;
15555;SDS011;7879;48.660;9.116;2024-03-22T06:58:39;0.20;;;0.20;;
15555;SDS011;7879;48.660;9.116;2024-03-22T07:01:05;0.17;;;0.17;;
15555;SDS011;7879;48.660;9.116;2024-03-22T07:03:31;0.20;;;0.20;;
15555;SDS011;7879;48.660;9.116;2024-03-22T07:05:57;0.10;;;0.10;;
15555;SDS011;7879;48.660;9.116;2024-03-22T07:08:23;0.20;;;0.20;;
15555;SDS011;7879;48.660;9.116;2024-03-22T07:10:53;0.10;;;0.10;;
15555;SDS011;7879;48.660;9.116;2024-03-22T07:13:20;0.20;;;0.20;;
15555;SDS011;7879;48.660;9.116;2024-03-22T07:15:48;0.10;;;0.10;;
15555;SDS011;7879;48.660;9.116;2024-03-22T07:18:15;0.20;;;0.20;;
15555;SDS011;7879;48.660;9.116;2024-03-22T07:20:41;0.10;;;0.10;;
15555;SDS011;7879;48.660;9.116;2024-03-22T07:23:07;0.10;;;0.10;;
15555;SDS011;7879;48.660;9.116;2024-03-22T07:25:34;0.20;;;0.20;;
15555;SDS011;7879;48.660;9.116;2024-03-22T07:28:00;0.10;;;0.10;;
15555;SDS011;7879;48.660;9.116;2024-03-22T07:30:26;0.20;;;0.20;;
15555;SDS011;7879;48.660;9.116;2024-03-22T07:32:52;0.17;;;0.17;;
15555;SDS011;7879;48.660;9.116;2024-03-22T07:35:17;0.10;;;0.10;;
15555;SDS011;7879;48.660;9.116;2024-03-22T07:37:43;0.20;;;0.20;;
15555;SDS011;7879;48.660;9.116;2024-03-22T07:40:10;0.10;;;0.10;;
15555;SDS011;7879;48.660;9.116;2024-03-22T07:42:36;0.10;;;0.10;;
15555;SDS011;7879;48.660;9.116;2024-03-22T07:45:02;0.20;;;0.20;;
15555;SDS011;7879;48.660;9.116;2024-03-22T07:47:29;0.10;;;0.10;;
15555;SDS011;7879;48.660;9.116;2024-03-22T07:49:55;0.10;;;0.10;;
15555;SDS011;7879;48.660;9.116;2024-03-22T07:52:21;0.20;;;0.20;;
15555;SDS011;7879;48.660;9.116;2024-03-22T07:54:47;0.10;;;0.10;;
15555;SDS011;7879;48.660;9.116;2024-03-22T07:57:13;0.10;;;0.10;;
15555;SDS011;7879;48.660;9.116;2024-03-22T07:59:39;0.20;;;0.20;;
15555;SDS011;7879;48.660;9.116;2024-03-22T08:02:05;0.15;;;0.15;;
15555;SDS011;7879;48.660;9.116;2024-03-22T08:04:31;0.10;;;0.10;;
15555;SDS011;7879;48.660;9.116;2024-03-22T08:06:57;0.10;;;0.10;;
15555;SDS011;7879;48.660;9.116;2024-03-22T08:09:23;0.10;;;0.10;;
15555;SDS011;7879;48.660;9.116;2024-03-22T08:11:52;0.20;;;0.20;;
15555;SDS011;7879;48.660;9.116;2024-03-22T08:14:17;0.10;;;0.10;;
15555;SDS011;7879;48.660;9.116;2024-03-22T08:16:43;0.10;;;0.10;;
15555;SDS011;7879;48.660;9.116;2024-03-22T08:19:10;0.10;;;0.10;;
15555;SDS011;7879;48.660;9.116;2024-03-22T08:21:35;0.10;;;0.10;;
15555;SDS011;7879;48.660;9.116;2024-03-22T08:24:02;0.10;;;0.10;;
15555;SDS011;7879;48.660;9.116;2024-03-22T08:26:28;0.10;;;0.10;;
15555;SDS011;7879;48.660;9.116;2024-03-22T08:28:54;0.10;;;0.10;;
15555;SDS011;7879;48.660;9.116;2024-03-22T08:31:20;0.10;;;0.10;;
15555;SDS011;7879;48.660;9.116;2024-03-22T08:33:51;0.10;;;0.10;;
15555;SDS011;7879;48.660;9.116;2024-03-22T08:36:26;0.10;;;0.10;;
15555;SDS011;7879;48.660;9.116;2024-03-22T08:38:55;0.10;;;0.10;;
15555;SDS011;7879;48.660;9.116;2024-03-22T08:41:21;0.10;;;0.10;;
15555;SDS011;7879;48.660;9.116;2024-03-22T08:43:47;0.10;;;0.10;;
15555;SDS011;7879;48.660;9.116;2024-03-22T08:46:13;0.10;;;0.10;;
15555;SDS011;7879;48.660;9.116;2024-03-22T08:48:39;0.10;;;0.10;;
15555;SDS011;7879;48.660;9.116;2024-03-22T08:51:04;0.10;;;0.10;;
15555;SDS011;7879;48.660;9.116;2024-03-22T08:53:30;0.10;;;0.10;;
15555;SDS011;7879;48.660;9.116;2024-03-22T08:55:56;0.10;;;0.10;;
15555;SDS011;7879;48.660;9.116;2024-03-22T08:58:22;0.10;;;0.10;;
15555;SDS011;7879;48.660;9.116;2024-03-22T09:00:48;0.00;;;0.00;;
15555;SDS011;7879;48.660;9.116;2024-03-22T09:03:14;0.00;;;0.00;;
15555;SDS011;7879;48.660;9.116;2024-03-22T09:05:40;0.10;;;0.10;;
15555;SDS011;7879;48.660;9.116;2024-03-22T09:08:06;0.00;;;0.00;;
15555;SDS011;7879;48.660;9.116;2024-03-22T09:10:32;0.00;;;0.00;;
15555;SDS011;7879;48.660;9.116;2024-03-22T09:12:59;0.10;;;0.10;;
15555;SDS011;7879;48.660;9.116;2024-03-22T09:15:25;0.03;;;0.03;;
15555;SDS011;7879;48.660;9.116;2024-03-22T09:17:54;0.00;;;0.00;;
15555;SDS011;7879;48.660;9.116;2024-03-22T09:20:19;0.00;;;0.00;;
15555;SDS011;7879;48.660;9.116;2024-03-22T09:22:46;0.00;;;0.00;;
15555;SDS011;7879;48.660;9.116;2024-03-22T09:25:12;0.00;;;0.00;;
15555;SDS011;7879;48.660;9.116;2024-03-22T09:27:40;0.00;;;0.00;;
15555;SDS011;7879;48.660;9.116;2024-03-22T09:30:10;0.00;;;0.00;;
15555;SDS011;7879;48.660;9.116;2024-03-22T09:32:36;0.00;;;0.00;;
15555;SDS011;7879;48.660;9.116;2024-03-22T09:35:02;0.00;;;0.00;;
15555;SDS011;7879;48.660;9.116;2024-03-22T09:37:28;0.00;;;0.00;;
15555;SDS011;7879;48.660;9.116;2024-03-22T09:39:54;0.00;;;0.00;;
15555;SDS011;7879;48.660;9.116;2024-03-22T09:42:20;0.00;;;0.00;;
15555;SDS011;7879;48.660;9.116;2024-03-22T09:44:50;0.00;;;0.00;;
15555;SDS011;7879;48.660;9.116;2024-03-22T09:47:17;0.00;;;0.00;;
15555;SDS011;7879;48.660;9.116;2024-03-22T09:49:43;0.00;;;0.00;;
15555;SDS011;7879;48.660;9.116;2024-03-22T09:52:15;0.00;;;0.00;;
15555;SDS011;7879;48.660;9.116;2024-03-22T09:54:44;0.00;;;0.00;;
15555;SDS011;7879;48.660;9.116;2024-03-22T09:57:13;0.00;;;0.00;;
15555;SDS011;7879;48.660;9.116;2024-03-22T09:59:43;0.00;;;0.00;;
15555;SDS011;7879;48.660;9.116;2024-03-22T10:02:10;0.00;;;0.00;;
15555;SDS011;7879;48.660;9.116;2024-03-22T10:04:40;0.00;;;0.00;;
15555;SDS011;7879;48.660;9.116;2024-03-22T10:07:06;0.00;;;0.00;;
15555;SDS011;7879;48.660;9.116;2024-03-22T10:09:34;0.00;;;0.00;;
15555;SDS011;7879;48.660;9.116;2024-03-22T10:12:00;0.00;;;0.00;;
15555;SDS011;7879;48.660;9.116;2024-03-22T10:14:26;0.00;;;0.00;;
15555;SDS011;7879;48.660;9.116;2024-03-22T10:16:52;0.00;;;0.00;;
15555;SDS011;7879;48.660;9.116;2024-03-22T10:19:22;0.00;;;0.00;;
15555;SDS011;7879;48.660;9.116;2024-03-22T10:22:01;0.00;;;0.00;;
15555;SDS011;7879;48.660;9.116;2024-03-22T10:24:33;0.00;;;0.00;;
15555;SDS011;7879;48.660;9.116;2024-03-22T10:26:59;0.00;;;0.00;;
15555;SDS011;7879;48.660;9.116;2024-03-22T10:29:25;0.00;;;0.00;;
15555;SDS011;7879;48.660;9.116;2024-03-22T10:31:53;0.00;;;0.00;;
15555;SDS011;7879;48.660;9.116;2024-03-22T10:34:21;0.00;;;0.00;;
15555;SDS011;7879;48.660;9.116;2024-03-22T10:36:48;0.00;;;0.00;;
15555;SDS011;7879;48.660;9.116;2024-03-22T10:39:18;0.00;;;0.00;;
15555;SDS011;7879;48.660;9.116;2024-03-22T10:41:47;0.00;;;0.00;;
15555;SDS011;7879;48.660;9.116;2024-03-22T10:44:14;0.00;;;0.00;;
15555;SDS011;7879;48.660;9.116;2024-03-22T10:46:45;0.00;;;0.00;;
15555;SDS011;7879;48.660;9.116;2024-03-22T10:49:14;0.00;;;0.00;;
15555;SDS011;7879;48.660;9.116;2024-03-22T10:51:57;0.00;;;0.00;;
15555;SDS011;7879;48.660;9.116;2024-03-22T10:54:37;0.00;;;0.00;;
15555;SDS011;7879;48.660;9.116;2024-03-22T10:57:06;0.00;;;0.00;;
15555;SDS011;7879;48.660;9.116;2024-03-22T10:59:37;0.00;;;0.00;;
15555;SDS011;7879;48.660;9.116;2024-03-22T11:02:06;0.00;;;0.00;;
15555;SDS011;7879;48.660;9.116;2024-03-22T11:04:32;0.00;;;0.00;;
15555;SDS011;7879;48.660;9.116;2024-03-22T11:06:59;0.00;;;0.00;;
15555;SDS011;7879;48.660;9.116;2024-03-22T11:09:25;0.00;;;0.00;;
15555;SDS011;7879;48.660;9.116;2024-03-22T11:11:52;0.00;;;0.00;;
15555;SDS011;7879;48.660;9.116;2024-03-22T11:14:19;0.00;;;0.00;;
15555;SDS011;7879;48.660;9.116;2024-03-22T11:16:48;0.00;;;0.00;;
15555;SDS011;7879;48.660;9.116;2024-03-22T11:19:23;0.00;;;0.00;;
15555;SDS011;7879;48.660;9.116;2024-03-22T11:21:49;0.00;;;0.00;;
15555;SDS011;7879;48.660;9.116;2024-03-22T11:24:15;0.00;;;0.00;;
15555;SDS011;7879;48.660;9.116;2024-03-22T11:26:41;0.00;;;0.00;;
15555;SDS011;7879;48.660;9.116;2024-03-22T11:29:09;0.00;;;0.00;;
15555;SDS011;7879;48.660;9.116;2024-03-22T11:31:35;0.00;;;0.00;;
15555;SDS011;7879;48.660;9.116;2024-03-22T11:34:02;0.00;;;0.00;;
15555;SDS011;7879;48.660;9.116;2024-03-22T11:36:28;0.00;;;0.00;;
15555;SDS011;7879;48.660;9.116;2024-03-22T11:38:55;0.00;;;0.00;;
15555;SDS011;7879;48.660;9.116;2024-03-22T11:41:24;0.00;;;0.00;;
15555;SDS011;7879;48.660;9.116;2024-03-22T11:43:57;0.00;;;0.00;;
15555;SDS011;7879;48.660;9.116;2024-03-22T11:46:25;0.00;;;0.00;;
15555;SDS011;7879;48.660;9.116;2024-03-22T11:48:55;0.00;;;0.00;;
15555;SDS011;7879;48.660;9.116;2024-03-22T11:51:27;0.00;;;0.00;;
15555;SDS011;7879;48.660;9.116;2024-03-22T11:53:56;0.00;;;0.00;;
15555;SDS011;7879;48.660;9.116;2024-03-22T11:56:25;0.00;;;0.00;;
15555;SDS011;7879;48.660;9.116;2024-03-22T11:58:57;0.00;;;0.00;;
15555;SDS011;7879;48.660;9.116;2024-03-22T12:01:24;0.00;;;0.00;;
15555;SDS011;7879;48.660;9.116;2024-03-22T12:03:50;0.00;;;0.00;;
15555;SDS011;7879;48.660;9.116;2024-03-22T12:06:16;0.00;;;0.00;;
15555;SDS011;7879;48.660;9.116;2024-03-22T12:08:42;0.00;;;0.00;;
15555;SDS011;7879;48.660;9.116;2024-03-22T12:11:08;0.00;;;0.00;;
15555;SDS011;7879;48.660;9.116;2024-03-22T12:13:34;0.00;;;0.00;;
15555;SDS011;7879;48.660;9.116;2024-03-22T12:16:00;0.00;;;0.00;;
15555;SDS011;7879;48.660;9.116;2024-03-22T12:18:28;0.00;;;0.00;;
15555;SDS011;7879;48.660;9.116;2024-03-22T12:20:54;0.00;;;0.00;;
15555;SDS011;7879;48.660;9.116;2024-03-22T12:23:20;0.00;;;0.00;;
15555;SDS011;7879;48.660;9.116;2024-03-22T12:25:46;0.00;;;0.00;;
15555;SDS011;7879;48.660;9.116;2024-03-22T12:28:12;0.00;;;0.00;;
15555;SDS011;7879;48.660;9.116;2024-03-22T12:30:39;0.00;;;0.00;;
15555;SDS011;7879;48.660;9.116;2024-03-22T12:33:05;0.00;;;0.00;;
15555;SDS011;7879;48.660;9.116;2024-03-22T12:35:35;0.00;;;0.00;;
15555;SDS011;7879;48.660;9.116;2024-03-22T12:38:02;0.00;;;0.00;;
15555;SDS011;7879;48.660;9.116;2024-03-22T12:40:28;0.00;;;0.00;;
15555;SDS011;7879;48.660;9.116;2024-03-22T12:42:58;0.00;;;0.00;;
15555;SDS011;7879;48.660;9.116;2024-03-22T12:45:26;0.00;;;0.00;;
15555;SDS011;7879;48.660;9.116;2024-03-22T12:47:52;0.00;;;0.00;;
15555;SDS011;7879;48.660;9.116;2024-03-22T12:50:18;0.00;;;0.00;;
15555;SDS011;7879;48.660;9.116;2024-03-22T12:52:45;0.00;;;0.00;;
15555;SDS011;7879;48.660;9.116;2024-03-22T12:55:10;0.00;;;0.00;;
15555;SDS011;7879;48.660;9.116;2024-03-22T12:57:36;0.00;;;0.00;;
15555;SDS011;7879;48.660;9.116;2024-03-22T13:00:02;0.00;;;0.00;;
15555;SDS011;7879;48.660;9.116;2024-03-22T13:02:31;0.00;;;0.00;;
15555;SDS011;7879;48.660;9.116;2024-03-22T13:04:57;0.00;;;0.00;;
15555;SDS011;7879;48.660;9.116;2024-03-22T13:07:26;0.00;;;0.00;;
15555;SDS011;7879;48.660;9.116;2024-03-22T13:09:53;0.00;;;0.00;;
15555;SDS011;7879;48.660;9.116;2024-03-22T13:12:18;0.00;;;0.00;;
15555;SDS011;7879;48.660;9.116;2024-03-22T13:14:44;0.00;;;0.00;;
15555;SDS011;7879;48.660;9.116;2024-03-22T13:17:11;0.00;;;0.00;;
15555;SDS011;7879;48.660;9.116;2024-03-22T13:19:37;0.00;;;0.00;;
15555;SDS011;7879;48.660;9.116;2024-03-22T13:22:03;0.00;;;0.00;;
15555;SDS011;7879;48.660;9.116;2024-03-22T13:24:29;0.00;;;0.00;;
15555;SDS011;7879;48.660;9.116;2024-03-22T13:26:55;0.00;;;0.00;;
15555;SDS011;7879;48.660;9.116;2024-03-22T13:29:21;0.00;;;0.00;;
15555;SDS011;7879;48.660;9.116;2024-03-22T13:31:47;0.00;;;0.00;;
15555;SDS011;7879;48.660;9.116;2024-03-22T13:34:13;0.00;;;0.00;;
15555;SDS011;7879;48.660;9.116;2024-03-22T13:36:39;0.00;;;0.00;;
15555;SDS011;7879;48.660;9.116;2024-03-22T13:39:04;0.00;;;0.00;;
15555;SDS011;7879;48.660;9.116;2024-03-22T13:41:30;0.00;;;0.00;;
15555;SDS011;7879;48.660;9.116;2024-03-22T13:43:56;0.00;;;0.00;;
15555;SDS011;7879;48.660;9.116;2024-03-22T13:46:23;0.00;;;0.00;;
15555;SDS011;7879;48.660;9.116;2024-03-22T13:48:52;0.00;;;0.00;;
15555;SDS011;7879;48.660;9.116;2024-03-22T13:51:18;0.00;;;0.00;;
15555;SDS011;7879;48.660;9.116;2024-03-22T13:53:44;0.00;;;0.00;;
15555;SDS011;7879;48.660;9.116;2024-03-22T13:56:09;0.00;;;0.00;;
15555;SDS011;7879;48.660;9.116;2024-03-22T13:58:35;0.00;;;0.00;;
15555;SDS011;7879;48.660;9.116;2024-03-22T14:01:01;0.00;;;0.00;;
15555;SDS011;7879;48.660;9.116;2024-03-22T14:03:28;0.00;;;0.00;;
15555;SDS011;7879;48.660;9.116;2024-03-22T14:05:54;0.00;;;0.00;;
15555;SDS011;7879;48.660;9.116;2024-03-22T14:08:20;0.00;;;0.00;;
15555;SDS011;7879;48.660;9.116;2024-03-22T14:10:46;0.00;;;0.00;;
15555;SDS011;7879;48.660;9.116;2024-03-22T14:13:12;0.00;;;0.00;;
15555;SDS011;7879;48.660;9.116;2024-03-22T14:15:38;0.00;;;0.00;;
15555;SDS011;7879;48.660;9.116;2024-03-22T14:18:04;0.00;;;0.00;;
15555;SDS011;7879;48.660;9.116;2024-03-22T14:20:30;0.00;;;0.00;;
15555;SDS011;7879;48.660;9.116;2024-03-22T14:22:56;0.00;;;0.00;;
15555;SDS011;7879;48.660;9.116;2024-03-22T14:25:22;0.00;;;0.00;;
15555;SDS011;7879;48.660;9.116;2024-03-22T14:27:49;0.00;;;0.00;;
15555;SDS011;7879;48.660;9.116;2024-03-22T14:30:15;0.00;;;0.00;;
15555;SDS011;7879;48.660;9.116;2024-03-22T14:32:41;0.00;;;0.00;;
15555;SDS011;7879;48.660;9.116;2024-03-22T14:35:07;0.00;;;0.00;;
15555;SDS011;7879;48.660;9.116;2024-03-22T14:37:35;0.00;;;0.00;;
15555;SDS011;7879;48.660;9.116;2024-03-22T14:40:01;0.00;;;0.00;;
15555;SDS011;7879;48.660;9.116;2024-03-22T14:42:30;0.00;;;0.00;;
15555;SDS011;7879;48.660;9.116;2024-03-22T14:44:56;0.00;;;0.00;;
15555;SDS011;7879;48.660;9.116;2024-03-22T14:47:22;0.00;;;0.00;;
15555;SDS011;7879;48.660;9.116;2024-03-22T14:49:49;0.00;;;0.00;;
15555;SDS011;7879;48.660;9.116;2024-03-22T14:52:16;0.00;;;0.00;;
15555;SDS011;7879;48.660;9.116;2024-03-22T14:54:42;0.00;;;0.00;;
15555;SDS011;7879;48.660;9.116;2024-03-22T14:57:08;0.00;;;0.00;;
15555;SDS011;7879;48.660;9.116;2024-03-22T14:59:35;0.00;;;0.00;;
15555;SDS011;7879;48.660;9.116;2024-03-22T15:02:00;0.00;;;0.00;;